sensor_id;sensor_type;location;lat;lon;timestamp;P1;durP1;ratioP1;P2;durP2;ratioP2
59336;SDS011;45115;52.002;4.686;2022-07-23T00:01:04;7.15;;;3.70;;
59336;SDS011;45115;52.002;4.686;2022-07-23T00:03:31;8.40;;;4.03;;
59336;SDS011;45115;52.002;4.686;2022-07-23T00:05:57;10.38;;;4.35;;
59336;SDS011;45115;52.002;4.686;2022-07-23T00:08:25;10.77;;;4.57;;
59336;SDS011;45115;52.002;4.686;2022-07-23T00:10:52;8.23;;;4.10;;
59336;SDS011;45115;52.002;4.686;2022-07-23T00:13:18;8.68;;;4.28;;
59336;SDS011;45115;52.002;4.686;2022-07-23T00:15:45;6.85;;;4.38;;
59336;SDS011;45115;52.002;4.686;2022-07-23T00:18:12;8.95;;;4.32;;
59336;SDS011;45115;52.002;4.686;2022-07-23T00:20:38;9.43;;;4.50;;
59336;SDS011;45115;52.002;4.686;2022-07-23T00:23:05;12.07;;;5.05;;
59336;SDS011;45115;52.002;4.686;2022-07-23T00:25:33;7.78;;;4.18;;
59336;SDS011;45115;52.002;4.686;2022-07-23T00:28:00;9.98;;;4.95;;
59336;SDS011;45115;52.002;4.686;2022-07-23T00:30:28;12.05;;;5.05;;
59336;SDS011;45115;52.002;4.686;2022-07-23T00:32:56;9.20;;;4.50;;
59336;SDS011;45115;52.002;4.686;2022-07-23T00:35:24;8.75;;;4.10;;
59336;SDS011;45115;52.002;4.686;2022-07-23T00:37:52;8.23;;;4.20;;
59336;SDS011;45115;52.002;4.686;2022-07-23T00:40:19;9.45;;;4.53;;
59336;SDS011;45115;52.002;4.686;2022-07-23T00:42:48;9.13;;;4.20;;
59336;SDS011;45115;52.002;4.686;2022-07-23T00:45:14;10.02;;;4.55;;
59336;SDS011;45115;52.002;4.686;2022-07-23T00:47:41;11.43;;;4.57;;
59336;SDS011;45115;52.002;4.686;2022-07-23T00:50:08;9.60;;;4.68;;
59336;SDS011;45115;52.002;4.686;2022-07-23T00:52:36;11.27;;;5.05;;
59336;SDS011;45115;52.002;4.686;2022-07-23T00:55:04;9.93;;;4.43;;
59336;SDS011;45115;52.002;4.686;2022-07-23T00:57:32;12.85;;;5.05;;
59336;SDS011;45115;52.002;4.686;2022-07-23T01:00:01;9.50;;;4.55;;
59336;SDS011;45115;52.002;4.686;2022-07-23T01:02:28;9.63;;;4.20;;
59336;SDS011;45115;52.002;4.686;2022-07-23T01:04:55;8.70;;;4.60;;
59336;SDS011;45115;52.002;4.686;2022-07-23T01:07:21;9.35;;;4.53;;
59336;SDS011;45115;52.002;4.686;2022-07-23T01:09:49;9.10;;;4.40;;
59336;SDS011;45115;52.002;4.686;2022-07-23T01:12:18;10.43;;;4.20;;
59336;SDS011;45115;52.002;4.686;2022-07-23T01:14:44;9.38;;;4.50;;
59336;SDS011;45115;52.002;4.686;2022-07-23T01:17:13;10.35;;;4.70;;
59336;SDS011;45115;52.002;4.686;2022-07-23T01:19:39;9.55;;;4.82;;
59336;SDS011;45115;52.002;4.686;2022-07-23T01:22:06;8.35;;;4.32;;
59336;SDS011;45115;52.002;4.686;2022-07-23T01:24:35;9.82;;;4.50;;
59336;SDS011;45115;52.002;4.686;2022-07-23T01:27:05;10.48;;;4.95;;
59336;SDS011;45115;52.002;4.686;2022-07-23T01:29:34;11.63;;;4.70;;
59336;SDS011;45115;52.002;4.686;2022-07-23T01:32:04;14.85;;;5.32;;
59336;SDS011;45115;52.002;4.686;2022-07-23T01:34:31;10.50;;;4.75;;
59336;SDS011;45115;52.002;4.686;2022-07-23T01:36:57;9.90;;;4.90;;
59336;SDS011;45115;52.002;4.686;2022-07-23T01:39:24;11.82;;;5.18;;
59336;SDS011;45115;52.002;4.686;2022-07-23T01:41:53;11.93;;;4.70;;
59336;SDS011;45115;52.002;4.686;2022-07-23T01:44:20;11.57;;;5.10;;
59336;SDS011;45115;52.002;4.686;2022-07-23T01:46:47;13.30;;;4.78;;
59336;SDS011;45115;52.002;4.686;2022-07-23T01:49:15;11.02;;;4.97;;
59336;SDS011;45115;52.002;4.686;2022-07-23T01:52:00;12.90;;;5.10;;
59336;SDS011;45115;52.002;4.686;2022-07-23T01:54:33;13.23;;;5.45;;
59336;SDS011;45115;52.002;4.686;2022-07-23T01:57:03;12.52;;;4.88;;
59336;SDS011;45115;52.002;4.686;2022-07-23T01:59:30;12.82;;;5.75;;
59336;SDS011;45115;52.002;4.686;2022-07-23T02:01:57;13.30;;;5.50;;
59336;SDS011;45115;52.002;4.686;2022-07-23T02:04:24;12.88;;;5.03;;
59336;SDS011;45115;52.002;4.686;2022-07-23T02:06:52;14.65;;;5.20;;
59336;SDS011;45115;52.002;4.686;2022-07-23T02:09:19;11.48;;;5.55;;
59336;SDS011;45115;52.002;4.686;2022-07-23T02:11:46;12.30;;;5.13;;
59336;SDS011;45115;52.002;4.686;2022-07-23T02:14:14;12.80;;;5.53;;
59336;SDS011;45115;52.002;4.686;2022-07-23T02:16:41;11.85;;;5.50;;
59336;SDS011;45115;52.002;4.686;2022-07-23T02:19:07;12.98;;;5.75;;
59336;SDS011;45115;52.002;4.686;2022-07-23T02:21:35;12.90;;;6.03;;
59336;SDS011;45115;52.002;4.686;2022-07-23T02:24:03;11.98;;;5.65;;
59336;SDS011;45115;52.002;4.686;2022-07-23T02:26:30;13.32;;;5.70;;
59336;SDS011;45115;52.002;4.686;2022-07-23T02:29:01;15.32;;;5.90;;
59336;SDS011;45115;52.002;4.686;2022-07-23T02:31:29;13.00;;;5.60;;
59336;SDS011;45115;52.002;4.686;2022-07-23T02:33:56;12.93;;;5.75;;
59336;SDS011;45115;52.002;4.686;2022-07-23T02:36:24;10.35;;;5.20;;
59336;SDS011;45115;52.002;4.686;2022-07-23T02:38:51;12.35;;;5.40;;
59336;SDS011;45115;52.002;4.686;2022-07-23T02:41:18;12.43;;;5.35;;
59336;SDS011;45115;52.002;4.686;2022-07-23T02:43:45;13.23;;;6.13;;
59336;SDS011;45115;52.002;4.686;2022-07-23T02:46:13;12.55;;;5.65;;
59336;SDS011;45115;52.002;4.686;2022-07-23T02:48:41;13.57;;;5.72;;
59336;SDS011;45115;52.002;4.686;2022-07-23T02:51:08;12.73;;;5.70;;
59336;SDS011;45115;52.002;4.686;2022-07-23T02:53:40;10.27;;;5.43;;
59336;SDS011;45115;52.002;4.686;2022-07-23T02:56:07;12.60;;;6.57;;
59336;SDS011;45115;52.002;4.686;2022-07-23T02:58:34;12.70;;;5.93;;
59336;SDS011;45115;52.002;4.686;2022-07-23T03:01:01;13.43;;;6.15;;
59336;SDS011;45115;52.002;4.686;2022-07-23T03:03:28;14.02;;;5.68;;
59336;SDS011;45115;52.002;4.686;2022-07-23T03:05:56;13.68;;;5.88;;
59336;SDS011;45115;52.002;4.686;2022-07-23T03:08:23;13.27;;;6.10;;
59336;SDS011;45115;52.002;4.686;2022-07-23T03:10:51;14.90;;;5.88;;
59336;SDS011;45115;52.002;4.686;2022-07-23T03:13:17;13.15;;;5.47;;
59336;SDS011;45115;52.002;4.686;2022-07-23T03:15:45;10.18;;;5.13;;
59336;SDS011;45115;52.002;4.686;2022-07-23T03:18:12;12.15;;;5.22;;
59336;SDS011;45115;52.002;4.686;2022-07-23T03:20:39;13.05;;;5.43;;
59336;SDS011;45115;52.002;4.686;2022-07-23T03:23:07;11.40;;;4.93;;
59336;SDS011;45115;52.002;4.686;2022-07-23T03:25:33;10.38;;;5.30;;
59336;SDS011;45115;52.002;4.686;2022-07-23T03:28:00;11.88;;;5.63;;
59336;SDS011;45115;52.002;4.686;2022-07-23T03:30:28;12.48;;;5.88;;
59336;SDS011;45115;52.002;4.686;2022-07-23T03:32:54;10.70;;;5.47;;
59336;SDS011;45115;52.002;4.686;2022-07-23T03:35:22;12.13;;;5.30;;
59336;SDS011;45115;52.002;4.686;2022-07-23T03:38:07;11.55;;;5.05;;
59336;SDS011;45115;52.002;4.686;2022-07-23T03:40:34;11.05;;;5.18;;
59336;SDS011;45115;52.002;4.686;2022-07-23T03:43:00;10.55;;;4.95;;
59336;SDS011;45115;52.002;4.686;2022-07-23T03:45:27;10.77;;;5.05;;
59336;SDS011;45115;52.002;4.686;2022-07-23T03:47:54;12.52;;;5.60;;
59336;SDS011;45115;52.002;4.686;2022-07-23T03:50:21;14.40;;;5.53;;
59336;SDS011;45115;52.002;4.686;2022-07-23T03:52:48;11.20;;;5.10;;
59336;SDS011;45115;52.002;4.686;2022-07-23T03:55:16;11.45;;;5.05;;
59336;SDS011;45115;52.002;4.686;2022-07-23T03:57:43;14.43;;;5.53;;
59336;SDS011;45115;52.002;4.686;2022-07-23T04:00:10;11.25;;;4.55;;
59336;SDS011;45115;52.002;4.686;2022-07-23T04:02:43;9.70;;;5.03;;
59336;SDS011;45115;52.002;4.686;2022-07-23T04:05:11;9.25;;;4.43;;
59336;SDS011;45115;52.002;4.686;2022-07-23T04:07:40;11.05;;;4.68;;
59336;SDS011;45115;52.002;4.686;2022-07-23T04:10:07;11.32;;;5.70;;
59336;SDS011;45115;52.002;4.686;2022-07-23T04:12:35;10.93;;;5.32;;
59336;SDS011;45115;52.002;4.686;2022-07-23T04:15:03;11.98;;;5.60;;
59336;SDS011;45115;52.002;4.686;2022-07-23T04:17:31;12.52;;;5.50;;
59336;SDS011;45115;52.002;4.686;2022-07-23T04:19:58;11.05;;;5.20;;
59336;SDS011;45115;52.002;4.686;2022-07-23T04:22:29;11.68;;;4.97;;
59336;SDS011;45115;52.002;4.686;2022-07-23T04:24:56;13.25;;;5.88;;
59336;SDS011;45115;52.002;4.686;2022-07-23T04:27:23;12.18;;;5.75;;
59336;SDS011;45115;52.002;4.686;2022-07-23T04:29:51;15.60;;;6.55;;
59336;SDS011;45115;52.002;4.686;2022-07-23T04:32:17;22.50;;;10.63;;
59336;SDS011;45115;52.002;4.686;2022-07-23T04:34:44;28.67;;;12.88;;
59336;SDS011;45115;52.002;4.686;2022-07-23T04:37:11;28.55;;;13.55;;
59336;SDS011;45115;52.002;4.686;2022-07-23T04:39:38;23.60;;;11.82;;
59336;SDS011;45115;52.002;4.686;2022-07-23T04:42:05;25.88;;;11.23;;
59336;SDS011;45115;52.002;4.686;2022-07-23T04:44:32;20.30;;;10.55;;
59336;SDS011;45115;52.002;4.686;2022-07-23T04:47:00;16.15;;;7.70;;
59336;SDS011;45115;52.002;4.686;2022-07-23T04:49:27;12.85;;;6.13;;
59336;SDS011;45115;52.002;4.686;2022-07-23T04:51:54;15.30;;;5.82;;
59336;SDS011;45115;52.002;4.686;2022-07-23T04:54:20;13.73;;;6.18;;
59336;SDS011;45115;52.002;4.686;2022-07-23T04:56:47;12.18;;;5.50;;
59336;SDS011;45115;52.002;4.686;2022-07-23T04:59:15;12.55;;;6.05;;
59336;SDS011;45115;52.002;4.686;2022-07-23T05:01:42;14.20;;;5.63;;
59336;SDS011;45115;52.002;4.686;2022-07-23T05:04:11;14.88;;;6.10;;
59336;SDS011;45115;52.002;4.686;2022-07-23T05:06:38;11.48;;;6.00;;
59336;SDS011;45115;52.002;4.686;2022-07-23T05:09:05;10.65;;;5.38;;
59336;SDS011;45115;52.002;4.686;2022-07-23T05:11:32;11.13;;;5.40;;
59336;SDS011;45115;52.002;4.686;2022-07-23T05:13:59;11.00;;;4.63;;
59336;SDS011;45115;52.002;4.686;2022-07-23T05:16:26;12.10;;;5.10;;
59336;SDS011;45115;52.002;4.686;2022-07-23T05:18:58;10.20;;;5.07;;
59336;SDS011;45115;52.002;4.686;2022-07-23T05:21:26;15.13;;;6.28;;
59336;SDS011;45115;52.002;4.686;2022-07-23T05:23:53;9.68;;;4.63;;
59336;SDS011;45115;52.002;4.686;2022-07-23T05:26:20;9.65;;;5.40;;
59336;SDS011;45115;52.002;4.686;2022-07-23T05:28:46;13.05;;;5.15;;
59336;SDS011;45115;52.002;4.686;2022-07-23T05:31:13;8.30;;;4.50;;
59336;SDS011;45115;52.002;4.686;2022-07-23T05:33:40;9.35;;;4.43;;
59336;SDS011;45115;52.002;4.686;2022-07-23T05:36:07;6.72;;;3.63;;
59336;SDS011;45115;52.002;4.686;2022-07-23T05:38:44;6.57;;;3.40;;
59336;SDS011;45115;52.002;4.686;2022-07-23T05:41:10;4.93;;;3.08;;
59336;SDS011;45115;52.002;4.686;2022-07-23T05:43:37;7.05;;;2.90;;
59336;SDS011;45115;52.002;4.686;2022-07-23T05:46:09;5.75;;;3.10;;
59336;SDS011;45115;52.002;4.686;2022-07-23T05:48:38;4.38;;;2.75;;
59336;SDS011;45115;52.002;4.686;2022-07-23T05:51:19;3.70;;;2.50;;
59336;SDS011;45115;52.002;4.686;2022-07-23T05:53:48;4.80;;;2.60;;
59336;SDS011;45115;52.002;4.686;2022-07-23T05:56:18;4.00;;;2.83;;
59336;SDS011;45115;52.002;4.686;2022-07-23T05:58:45;3.67;;;2.38;;
59336;SDS011;45115;52.002;4.686;2022-07-23T06:01:14;3.33;;;2.45;;
59336;SDS011;45115;52.002;4.686;2022-07-23T06:03:51;5.55;;;2.80;;
59336;SDS011;45115;52.002;4.686;2022-07-23T06:06:19;5.05;;;2.47;;
59336;SDS011;45115;52.002;4.686;2022-07-23T06:08:45;3.17;;;2.50;;
59336;SDS011;45115;52.002;4.686;2022-07-23T06:11:14;4.85;;;2.85;;
59336;SDS011;45115;52.002;4.686;2022-07-23T06:13:41;4.57;;;2.72;;
59336;SDS011;45115;52.002;4.686;2022-07-23T06:16:07;4.38;;;2.97;;
59336;SDS011;45115;52.002;4.686;2022-07-23T06:18:34;4.90;;;2.67;;
59336;SDS011;45115;52.002;4.686;2022-07-23T06:21:01;4.13;;;2.47;;
59336;SDS011;45115;52.002;4.686;2022-07-23T06:23:27;4.07;;;2.60;;
59336;SDS011;45115;52.002;4.686;2022-07-23T06:25:54;4.55;;;2.47;;
59336;SDS011;45115;52.002;4.686;2022-07-23T06:28:22;3.45;;;2.30;;
59336;SDS011;45115;52.002;4.686;2022-07-23T06:30:49;2.95;;;2.00;;
59336;SDS011;45115;52.002;4.686;2022-07-23T06:33:16;4.18;;;2.20;;
59336;SDS011;45115;52.002;4.686;2022-07-23T06:35:43;4.97;;;2.45;;
59336;SDS011;45115;52.002;4.686;2022-07-23T06:38:10;6.43;;;2.35;;
59336;SDS011;45115;52.002;4.686;2022-07-23T06:40:36;5.28;;;2.15;;
59336;SDS011;45115;52.002;4.686;2022-07-23T06:43:03;6.55;;;2.55;;
59336;SDS011;45115;52.002;4.686;2022-07-23T06:45:36;4.38;;;2.35;;
59336;SDS011;45115;52.002;4.686;2022-07-23T06:48:03;2.63;;;2.15;;
59336;SDS011;45115;52.002;4.686;2022-07-23T06:50:30;3.25;;;2.40;;
59336;SDS011;45115;52.002;4.686;2022-07-23T06:52:56;5.82;;;2.20;;
59336;SDS011;45115;52.002;4.686;2022-07-23T06:55:23;2.08;;;1.88;;
59336;SDS011;45115;52.002;4.686;2022-07-23T06:57:49;2.72;;;1.67;;
59336;SDS011;45115;52.002;4.686;2022-07-23T07:00:16;4.95;;;2.13;;
59336;SDS011;45115;52.002;4.686;2022-07-23T07:02:44;3.15;;;2.30;;
59336;SDS011;45115;52.002;4.686;2022-07-23T07:05:11;3.80;;;2.10;;
59336;SDS011;45115;52.002;4.686;2022-07-23T07:07:38;6.05;;;2.10;;
59336;SDS011;45115;52.002;4.686;2022-07-23T07:10:04;2.15;;;1.80;;
59336;SDS011;45115;52.002;4.686;2022-07-23T07:12:32;3.60;;;2.13;;
59336;SDS011;45115;52.002;4.686;2022-07-23T07:14:58;5.05;;;2.50;;
59336;SDS011;45115;52.002;4.686;2022-07-23T07:17:25;3.22;;;2.22;;
59336;SDS011;45115;52.002;4.686;2022-07-23T07:19:53;4.40;;;2.63;;
59336;SDS011;45115;52.002;4.686;2022-07-23T07:22:20;3.35;;;2.42;;
59336;SDS011;45115;52.002;4.686;2022-07-23T07:24:46;2.50;;;2.30;;
59336;SDS011;45115;52.002;4.686;2022-07-23T07:27:13;4.18;;;2.22;;
59336;SDS011;45115;52.002;4.686;2022-07-23T07:29:40;2.97;;;2.35;;
59336;SDS011;45115;52.002;4.686;2022-07-23T07:32:06;3.50;;;2.67;;
59336;SDS011;45115;52.002;4.686;2022-07-23T07:34:33;4.85;;;2.40;;
59336;SDS011;45115;52.002;4.686;2022-07-23T07:37:01;3.80;;;2.08;;
59336;SDS011;45115;52.002;4.686;2022-07-23T07:39:27;4.25;;;2.58;;
59336;SDS011;45115;52.002;4.686;2022-07-23T07:41:54;5.50;;;2.38;;
59336;SDS011;45115;52.002;4.686;2022-07-23T07:44:21;4.65;;;2.30;;
59336;SDS011;45115;52.002;4.686;2022-07-23T07:46:47;4.18;;;2.40;;
59336;SDS011;45115;52.002;4.686;2022-07-23T07:49:14;6.10;;;2.40;;
59336;SDS011;45115;52.002;4.686;2022-07-23T07:51:44;5.85;;;2.67;;
59336;SDS011;45115;52.002;4.686;2022-07-23T07:54:12;5.47;;;2.88;;
59336;SDS011;45115;52.002;4.686;2022-07-23T07:56:39;3.55;;;2.90;;
59336;SDS011;45115;52.002;4.686;2022-07-23T07:59:06;3.47;;;2.65;;
59336;SDS011;45115;52.002;4.686;2022-07-23T08:01:33;6.82;;;2.75;;
59336;SDS011;45115;52.002;4.686;2022-07-23T08:04:00;4.88;;;2.50;;
59336;SDS011;45115;52.002;4.686;2022-07-23T08:06:26;5.15;;;2.78;;
59336;SDS011;45115;52.002;4.686;2022-07-23T08:08:53;3.95;;;2.33;;
59336;SDS011;45115;52.002;4.686;2022-07-23T08:11:21;4.47;;;2.45;;
59336;SDS011;45115;52.002;4.686;2022-07-23T08:13:47;3.88;;;2.30;;
59336;SDS011;45115;52.002;4.686;2022-07-23T08:16:14;4.10;;;2.58;;
59336;SDS011;45115;52.002;4.686;2022-07-23T08:18:41;5.38;;;2.80;;
59336;SDS011;45115;52.002;4.686;2022-07-23T08:21:07;4.22;;;2.60;;
59336;SDS011;45115;52.002;4.686;2022-07-23T08:23:34;3.25;;;2.42;;
59336;SDS011;45115;52.002;4.686;2022-07-23T08:26:01;4.28;;;2.30;;
59336;SDS011;45115;52.002;4.686;2022-07-23T08:28:29;3.03;;;2.60;;
59336;SDS011;45115;52.002;4.686;2022-07-23T08:30:58;2.70;;;2.30;;
59336;SDS011;45115;52.002;4.686;2022-07-23T08:33:25;2.50;;;2.30;;
59336;SDS011;45115;52.002;4.686;2022-07-23T08:35:52;6.15;;;2.63;;
59336;SDS011;45115;52.002;4.686;2022-07-23T08:38:19;3.25;;;1.98;;
59336;SDS011;45115;52.002;4.686;2022-07-23T08:40:48;6.28;;;2.70;;
59336;SDS011;45115;52.002;4.686;2022-07-23T08:43:19;3.28;;;2.35;;
59336;SDS011;45115;52.002;4.686;2022-07-23T08:45:49;4.38;;;2.40;;
59336;SDS011;45115;52.002;4.686;2022-07-23T08:48:17;4.43;;;2.60;;
59336;SDS011;45115;52.002;4.686;2022-07-23T08:50:46;4.32;;;2.70;;
59336;SDS011;45115;52.002;4.686;2022-07-23T08:53:14;4.68;;;2.88;;
59336;SDS011;45115;52.002;4.686;2022-07-23T08:55:43;5.30;;;2.30;;
59336;SDS011;45115;52.002;4.686;2022-07-23T08:58:10;4.18;;;2.85;;
59336;SDS011;45115;52.002;4.686;2022-07-23T09:00:37;7.95;;;2.67;;
59336;SDS011;45115;52.002;4.686;2022-07-23T09:03:05;3.60;;;2.80;;
59336;SDS011;45115;52.002;4.686;2022-07-23T09:05:32;4.65;;;2.58;;
59336;SDS011;45115;52.002;4.686;2022-07-23T09:08:09;2.63;;;2.30;;
59336;SDS011;45115;52.002;4.686;2022-07-23T09:10:44;6.30;;;2.50;;
59336;SDS011;45115;52.002;4.686;2022-07-23T09:16:09;4.22;;;2.53;;
59336;SDS011;45115;52.002;4.686;2022-07-23T09:18:44;3.88;;;2.25;;
59336;SDS011;45115;52.002;4.686;2022-07-23T09:21:14;5.07;;;2.50;;
59336;SDS011;45115;52.002;4.686;2022-07-23T09:23:43;6.72;;;2.80;;
59336;SDS011;45115;52.002;4.686;2022-07-23T09:26:17;5.78;;;2.72;;
59336;SDS011;45115;52.002;4.686;2022-07-23T09:29:05;6.95;;;3.97;;
59336;SDS011;45115;52.002;4.686;2022-07-23T09:31:41;4.43;;;3.20;;
59336;SDS011;45115;52.002;4.686;2022-07-23T09:34:12;6.07;;;3.75;;
59336;SDS011;45115;52.002;4.686;2022-07-23T09:36:40;7.07;;;3.00;;
59336;SDS011;45115;52.002;4.686;2022-07-23T09:39:08;3.60;;;2.60;;
59336;SDS011;45115;52.002;4.686;2022-07-23T09:41:35;6.40;;;2.55;;
59336;SDS011;45115;52.002;4.686;2022-07-23T09:44:06;4.78;;;2.92;;
59336;SDS011;45115;52.002;4.686;2022-07-23T09:49:09;3.42;;;2.60;;
59336;SDS011;45115;52.002;4.686;2022-07-23T09:51:45;4.32;;;2.80;;
59336;SDS011;45115;52.002;4.686;2022-07-23T09:54:20;8.50;;;3.10;;
59336;SDS011;45115;52.002;4.686;2022-07-23T09:56:53;5.60;;;2.70;;
59336;SDS011;45115;52.002;4.686;2022-07-23T09:59:22;4.82;;;2.80;;
59336;SDS011;45115;52.002;4.686;2022-07-23T10:01:51;5.07;;;2.92;;
59336;SDS011;45115;52.002;4.686;2022-07-23T10:04:23;4.93;;;2.90;;
59336;SDS011;45115;52.002;4.686;2022-07-23T10:07:10;6.15;;;3.20;;
59336;SDS011;45115;52.002;4.686;2022-07-23T10:09:55;4.25;;;2.97;;
59336;SDS011;45115;52.002;4.686;2022-07-23T10:12:46;3.75;;;2.85;;
59336;SDS011;45115;52.002;4.686;2022-07-23T10:15:42;4.85;;;2.83;;
59336;SDS011;45115;52.002;4.686;2022-07-23T10:18:10;4.90;;;2.65;;
59336;SDS011;45115;52.002;4.686;2022-07-23T10:20:38;4.47;;;2.92;;
59336;SDS011;45115;52.002;4.686;2022-07-23T10:23:08;4.23;;;2.97;;
59336;SDS011;45115;52.002;4.686;2022-07-23T10:25:44;4.22;;;3.00;;
59336;SDS011;45115;52.002;4.686;2022-07-23T10:28:19;4.88;;;3.15;;
59336;SDS011;45115;52.002;4.686;2022-07-23T10:31:00;7.18;;;3.88;;
59336;SDS011;45115;52.002;4.686;2022-07-23T10:33:38;6.40;;;3.83;;
59336;SDS011;45115;52.002;4.686;2022-07-23T10:36:15;6.03;;;3.33;;
59336;SDS011;45115;52.002;4.686;2022-07-23T10:38:48;7.68;;;3.53;;
59336;SDS011;45115;52.002;4.686;2022-07-23T10:41:30;5.38;;;3.20;;
59336;SDS011;45115;52.002;4.686;2022-07-23T10:44:08;5.30;;;3.20;;
59336;SDS011;45115;52.002;4.686;2022-07-23T10:46:36;3.63;;;2.85;;
59336;SDS011;45115;52.002;4.686;2022-07-23T10:49:25;4.00;;;2.95;;
59336;SDS011;45115;52.002;4.686;2022-07-23T10:57:11;5.07;;;3.45;;
59336;SDS011;45115;52.002;4.686;2022-07-23T11:02:51;5.03;;;3.38;;
59336;SDS011;45115;52.002;4.686;2022-07-23T11:05:19;7.80;;;3.47;;
59336;SDS011;45115;52.002;4.686;2022-07-23T11:10:40;5.55;;;3.45;;
59336;SDS011;45115;52.002;4.686;2022-07-23T11:16:13;5.65;;;3.42;;
59336;SDS011;45115;52.002;4.686;2022-07-23T11:18:57;3.77;;;2.90;;
59336;SDS011;45115;52.002;4.686;2022-07-23T11:21:40;5.53;;;3.45;;
59336;SDS011;45115;52.002;4.686;2022-07-23T11:24:16;9.60;;;3.67;;
59336;SDS011;45115;52.002;4.686;2022-07-23T11:29:42;8.40;;;3.88;;
59336;SDS011;45115;52.002;4.686;2022-07-23T11:32:20;6.35;;;4.00;;
59336;SDS011;45115;52.002;4.686;2022-07-23T11:37:35;6.40;;;3.92;;
59336;SDS011;45115;52.002;4.686;2022-07-23T11:40:06;5.10;;;3.45;;
59336;SDS011;45115;52.002;4.686;2022-07-23T11:42:35;7.75;;;4.00;;
59336;SDS011;45115;52.002;4.686;2022-07-23T11:45:04;4.70;;;3.28;;
59336;SDS011;45115;52.002;4.686;2022-07-23T11:47:32;6.07;;;3.28;;
59336;SDS011;45115;52.002;4.686;2022-07-23T11:50:00;4.88;;;3.30;;
59336;SDS011;45115;52.002;4.686;2022-07-23T11:52:29;4.65;;;3.20;;
59336;SDS011;45115;52.002;4.686;2022-07-23T11:54:56;4.50;;;3.50;;
59336;SDS011;45115;52.002;4.686;2022-07-23T11:57:27;6.25;;;3.33;;
59336;SDS011;45115;52.002;4.686;2022-07-23T11:59:56;17.40;;;11.27;;
59336;SDS011;45115;52.002;4.686;2022-07-23T12:02:26;4.55;;;3.28;;
59336;SDS011;45115;52.002;4.686;2022-07-23T12:04:53;6.18;;;3.88;;
59336;SDS011;45115;52.002;4.686;2022-07-23T12:07:27;6.30;;;3.85;;
59336;SDS011;45115;52.002;4.686;2022-07-23T12:09:56;5.32;;;3.50;;
59336;SDS011;45115;52.002;4.686;2022-07-23T12:12:24;6.60;;;3.35;;
59336;SDS011;45115;52.002;4.686;2022-07-23T12:14:53;6.50;;;3.75;;
59336;SDS011;45115;52.002;4.686;2022-07-23T12:17:21;4.00;;;3.05;;
59336;SDS011;45115;52.002;4.686;2022-07-23T12:19:54;6.60;;;3.60;;
59336;SDS011;45115;52.002;4.686;2022-07-23T12:22:21;4.22;;;2.90;;
59336;SDS011;45115;52.002;4.686;2022-07-23T12:24:53;4.97;;;3.45;;
59336;SDS011;45115;52.002;4.686;2022-07-23T12:27:21;3.22;;;2.92;;
59336;SDS011;45115;52.002;4.686;2022-07-23T12:29:48;5.32;;;3.30;;
59336;SDS011;45115;52.002;4.686;2022-07-23T12:32:18;4.82;;;3.47;;
59336;SDS011;45115;52.002;4.686;2022-07-23T12:34:47;4.57;;;3.30;;
59336;SDS011;45115;52.002;4.686;2022-07-23T12:37:26;5.80;;;3.88;;
59336;SDS011;45115;52.002;4.686;2022-07-23T12:39:54;5.32;;;3.20;;
59336;SDS011;45115;52.002;4.686;2022-07-23T12:42:20;5.45;;;3.83;;
59336;SDS011;45115;52.002;4.686;2022-07-23T12:45:08;4.88;;;3.60;;
59336;SDS011;45115;52.002;4.686;2022-07-23T12:47:58;7.15;;;3.78;;
59336;SDS011;45115;52.002;4.686;2022-07-23T12:50:36;5.88;;;3.63;;
59336;SDS011;45115;52.002;4.686;2022-07-23T12:53:09;4.15;;;3.05;;
59336;SDS011;45115;52.002;4.686;2022-07-23T12:55:38;10.48;;;5.00;;
59336;SDS011;45115;52.002;4.686;2022-07-23T12:58:07;8.68;;;3.83;;
59336;SDS011;45115;52.002;4.686;2022-07-23T13:03:33;7.38;;;3.72;;
59336;SDS011;45115;52.002;4.686;2022-07-23T13:06:03;6.85;;;3.97;;
59336;SDS011;45115;52.002;4.686;2022-07-23T13:08:32;4.78;;;3.15;;
59336;SDS011;45115;52.002;4.686;2022-07-23T13:10:59;5.22;;;3.55;;
59336;SDS011;45115;52.002;4.686;2022-07-23T13:13:27;5.30;;;3.28;;
59336;SDS011;45115;52.002;4.686;2022-07-23T13:15:56;7.00;;;3.85;;
59336;SDS011;45115;52.002;4.686;2022-07-23T13:18:23;6.32;;;3.13;;
59336;SDS011;45115;52.002;4.686;2022-07-23T13:20:52;5.35;;;3.20;;
59336;SDS011;45115;52.002;4.686;2022-07-23T13:23:19;4.03;;;3.03;;
59336;SDS011;45115;52.002;4.686;2022-07-23T13:25:46;5.80;;;3.20;;
59336;SDS011;45115;52.002;4.686;2022-07-23T13:28:14;5.07;;;3.40;;
59336;SDS011;45115;52.002;4.686;2022-07-23T13:30:42;3.10;;;2.80;;
59336;SDS011;45115;52.002;4.686;2022-07-23T13:33:10;6.78;;;3.83;;
59336;SDS011;45115;52.002;4.686;2022-07-23T13:35:37;6.13;;;3.60;;
59336;SDS011;45115;52.002;4.686;2022-07-23T13:38:05;4.85;;;3.60;;
59336;SDS011;45115;52.002;4.686;2022-07-23T13:40:33;7.30;;;3.73;;
59336;SDS011;45115;52.002;4.686;2022-07-23T13:43:04;3.92;;;3.40;;
59336;SDS011;45115;52.002;4.686;2022-07-23T13:45:31;4.32;;;3.10;;
59336;SDS011;45115;52.002;4.686;2022-07-23T13:47:58;5.72;;;3.50;;
59336;SDS011;45115;52.002;4.686;2022-07-23T13:50:25;3.92;;;2.85;;
59336;SDS011;45115;52.002;4.686;2022-07-23T13:52:51;7.25;;;3.83;;
59336;SDS011;45115;52.002;4.686;2022-07-23T13:55:19;7.18;;;3.05;;
59336;SDS011;45115;52.002;4.686;2022-07-23T13:57:46;6.30;;;3.50;;
59336;SDS011;45115;52.002;4.686;2022-07-23T14:00:13;6.45;;;4.05;;
59336;SDS011;45115;52.002;4.686;2022-07-23T14:02:40;6.18;;;3.85;;
59336;SDS011;45115;52.002;4.686;2022-07-23T14:05:08;4.72;;;3.33;;
59336;SDS011;45115;52.002;4.686;2022-07-23T14:07:37;5.22;;;3.60;;
59336;SDS011;45115;52.002;4.686;2022-07-23T14:10:05;4.07;;;3.20;;
59336;SDS011;45115;52.002;4.686;2022-07-23T14:12:34;6.13;;;3.47;;
59336;SDS011;45115;52.002;4.686;2022-07-23T14:15:01;4.18;;;3.30;;
59336;SDS011;45115;52.002;4.686;2022-07-23T14:17:29;4.65;;;3.40;;
59336;SDS011;45115;52.002;4.686;2022-07-23T14:19:56;4.05;;;3.60;;
59336;SDS011;45115;52.002;4.686;2022-07-23T14:22:23;4.97;;;3.58;;
59336;SDS011;45115;52.002;4.686;2022-07-23T14:24:50;6.60;;;3.50;;
59336;SDS011;45115;52.002;4.686;2022-07-23T14:27:17;6.03;;;3.20;;
59336;SDS011;45115;52.002;4.686;2022-07-23T14:29:45;6.05;;;2.88;;
59336;SDS011;45115;52.002;4.686;2022-07-23T14:32:11;4.50;;;3.55;;
59336;SDS011;45115;52.002;4.686;2022-07-23T14:34:38;5.47;;;3.20;;
59336;SDS011;45115;52.002;4.686;2022-07-23T14:37:04;4.82;;;3.47;;
59336;SDS011;45115;52.002;4.686;2022-07-23T14:39:31;4.55;;;3.00;;
59336;SDS011;45115;52.002;4.686;2022-07-23T14:41:58;4.40;;;3.70;;
59336;SDS011;45115;52.002;4.686;2022-07-23T14:44:25;3.90;;;2.67;;
59336;SDS011;45115;52.002;4.686;2022-07-23T14:46:53;7.07;;;3.47;;
59336;SDS011;45115;52.002;4.686;2022-07-23T14:49:19;6.30;;;3.30;;
59336;SDS011;45115;52.002;4.686;2022-07-23T14:51:46;4.45;;;3.22;;
59336;SDS011;45115;52.002;4.686;2022-07-23T14:54:13;7.03;;;3.58;;
59336;SDS011;45115;52.002;4.686;2022-07-23T14:56:40;4.97;;;3.30;;
59336;SDS011;45115;52.002;4.686;2022-07-23T14:59:07;4.20;;;3.67;;
59336;SDS011;45115;52.002;4.686;2022-07-23T15:01:34;5.22;;;2.88;;
59336;SDS011;45115;52.002;4.686;2022-07-23T15:04:02;4.28;;;3.30;;
59336;SDS011;45115;52.002;4.686;2022-07-23T15:06:30;6.93;;;3.90;;
59336;SDS011;45115;52.002;4.686;2022-07-23T15:08:57;5.57;;;4.10;;
59336;SDS011;45115;52.002;4.686;2022-07-23T15:11:25;3.90;;;3.38;;
59336;SDS011;45115;52.002;4.686;2022-07-23T15:13:52;4.28;;;3.55;;
59336;SDS011;45115;52.002;4.686;2022-07-23T15:16:18;4.57;;;3.40;;
59336;SDS011;45115;52.002;4.686;2022-07-23T15:18:45;3.92;;;3.45;;
59336;SDS011;45115;52.002;4.686;2022-07-23T15:21:13;4.00;;;3.60;;